Time;durP1;ratioP1;P1;durP2;ratioP2;P2;SDS_P1;SDS_P2;PMS_P1;PMS_P2;Temp;Humidity;BMP_temperature;BMP_pressure;BME280_temperature;BME280_humidity;BME280_pressure;Samples;Min_cycle;Max_cycle;Signal;HPM_P1;HPM_P2
2021/07/13 00:00:47;;;;;;;2.47;1.85;;;18.20;99.90;;;;;;5013624;28;20390;-72
2021/07/13 00:03:13;;;;;;;3.97;1.60;;;18.20;99.90;;;;;;5013415;28;20037;-73
2021/07/13 00:05:39;;;;;;;3.67;1.77;;;18.20;99.90;;;;;;5013716;28;20084;-72
2021/07/13 00:08:05;;;;;;;2.25;1.63;;;18.20;99.90;;;;;;5013213;28;20030;-72
2021/07/13 00:10:34;;;;;;;1.55;1.45;;;18.10;99.90;;;;;;5013369;28;20342;-72
2021/07/13 00:13:00;;;;;;;1.80;1.70;;;18.10;99.90;;;;;;5013543;28;20030;-72
2021/07/13 00:15:38;;;;;;;2.00;1.65;;;18.10;99.90;;;;;;5013599;28;20133;-73
2021/07/13 00:18:05;;;;;;;3.28;1.50;;;18.10;99.90;;;;;;5013261;28;20021;-72
2021/07/13 00:20:32;;;;;;;1.70;1.60;;;18.10;99.90;;;;;;5013272;28;20050;-72
2021/07/13 00:22:58;;;;;;;3.83;1.60;;;18.10;99.90;;;;;;5013177;28;20084;-74
2021/07/13 00:25:27;;;;;;;2.70;1.80;;;18.00;99.90;;;;;;5013045;28;20030;-72
2021/07/13 00:27:53;;;;;;;2.47;1.83;;;18.00;99.90;;;;;;5013033;28;20034;-72
2021/07/13 00:30:20;;;;;;;2.67;1.80;;;18.00;99.90;;;;;;5013201;28;20030;-72
2021/07/13 00:32:46;;;;;;;2.65;1.90;;;17.90;99.90;;;;;;5012942;28;20032;-72
2021/07/13 00:35:12;;;;;;;3.10;1.92;;;17.80;99.90;;;;;;5013089;28;20120;-72
2021/07/13 00:37:38;;;;;;;3.92;2.13;;;17.80;99.90;;;;;;5013215;28;20451;-72
2021/07/13 00:40:05;;;;;;;2.15;1.95;;;17.80;99.90;;;;;;5013172;28;20037;-72
2021/07/13 00:42:31;;;;;;;6.18;3.15;;;17.70;99.90;;;;;;5012859;28;20049;-72
2021/07/13 00:44:57;;;;;;;2.33;1.75;;;17.60;99.90;;;;;;5012873;28;20030;-72
2021/07/13 00:47:25;;;;;;;1.88;1.75;;;17.60;99.90;;;;;;5012642;28;20069;-72
2021/07/13 00:49:51;;;;;;;5.28;2.05;;;17.60;99.90;;;;;;5013078;28;20058;-72
2021/07/13 00:52:18;;;;;;;6.53;2.17;;;17.60;99.90;;;;;;5012435;28;20525;-72
2021/07/13 00:54:47;;;;;;;2.42;1.70;;;17.50;99.90;;;;;;5012964;28;20362;-72
2021/07/13 00:57:15;;;;;;;3.63;1.90;;;17.50;99.90;;;;;;5012644;28;20056;-72
2021/07/13 00:59:41;;;;;;;7.72;2.00;;;17.50;99.90;;;;;;5012888;28;20034;-72
2021/07/13 01:02:09;;;;;;;4.65;2.60;;;17.40;99.90;;;;;;5012506;28;20030;-72
2021/07/13 01:04:36;;;;;;;2.42;1.88;;;17.40;99.90;;;;;;5012520;28;20029;-74
2021/07/13 01:07:08;;;;;;;2.70;1.90;;;17.30;99.90;;;;;;5012377;28;20041;-74
2021/07/13 01:09:42;;;;;;;7.97;2.08;;;17.30;99.90;;;;;;5012380;28;20041;-72
2021/07/13 01:12:34;;;;;;;2.25;2.03;;;17.20;99.90;;;;;;5012245;28;20061;-74
2021/07/13 01:15:02;;;;;;;2.38;1.58;;;17.20;99.90;;;;;;4968488;28;20088;-74
2021/07/13 01:54:33;;;;;;;1.90;1.80;;;16.90;99.90;;;;;;4949746;28;20406;-72
2021/07/13 01:57:00;;;;;;;2.20;2.00;;;16.90;99.90;;;;;;4953880;29;20094;-72
2021/07/13 01:59:27;;;;;;;4.90;2.60;;;16.80;99.90;;;;;;4953582;29;20027;-72
2021/07/13 02:02:00;;;;;;;2.03;1.80;;;16.90;99.90;;;;;;4953575;29;20027;-72
2021/07/13 02:04:30;;;;;;;2.33;1.88;;;16.90;99.90;;;;;;4953796;29;20035;-72
2021/07/13 02:07:03;;;;;;;2.80;2.20;;;16.90;99.90;;;;;;4953504;29;20382;-72
2021/07/13 02:09:29;;;;;;;2.40;1.80;;;16.80;99.90;;;;;;4953558;29;20028;-72
2021/07/13 02:11:56;;;;;;;2.05;1.88;;;16.90;99.90;;;;;;4953466;29;20020;-72
2021/07/13 02:14:23;;;;;;;2.90;1.75;;;16.80;99.90;;;;;;4953612;29;20078;-72
2021/07/13 02:16:49;;;;;;;3.15;2.08;;;16.80;99.90;;;;;;4953422;29;20027;-72
2021/07/13 02:19:16;;;;;;;2.38;2.10;;;16.80;99.90;;;;;;4953739;29;20031;-72
2021/07/13 02:21:42;;;;;;;2.10;1.90;;;16.80;99.90;;;;;;4954981;28;20146;-73
2021/07/13 02:24:08;;;;;;;5.32;2.05;;;16.80;99.90;;;;;;4956998;29;20028;-72
2021/07/13 02:26:43;;;;;;;4.50;2.00;;;16.80;99.90;;;;;;4957364;29;20023;-72
2021/07/13 02:29:19;;;;;;;4.18;2.13;;;16.70;99.90;;;;;;4957076;29;20058;-72
2021/07/13 02:31:52;;;;;;;4.32;1.75;;;16.80;99.90;;;;;;4957152;29;20050;-72
2021/07/13 02:34:19;;;;;;;2.30;2.10;;;16.80;99.90;;;;;;4956763;29;20039;-72
2021/07/13 02:36:49;;;;;;;2.53;2.08;;;16.70;99.90;;;;;;4957063;29;20106;-72
2021/07/13 02:39:17;;;;;;;2.75;2.17;;;16.70;99.90;;;;;;4956920;28;20106;-72
2021/07/13 02:41:45;;;;;;;3.08;1.67;;;16.70;99.90;;;;;;4957032;28;20032;-72
2021/07/13 02:44:12;;;;;;;1.98;1.88;;;16.70;99.90;;;;;;4956644;29;20027;-72
2021/07/13 02:46:41;;;;;;;3.67;2.00;;;16.70;99.90;;;;;;4956525;29;20054;-72
2021/07/13 02:49:09;;;;;;;3.55;1.92;;;16.70;99.90;;;;;;4956619;29;20024;-72
2021/07/13 02:51:36;;;;;;;3.33;2.03;;;16.70;99.90;;;;;;4956650;29;20026;-72
2021/07/13 02:54:05;;;;;;;2.40;1.80;;;16.70;99.90;;;;;;4940215;29;20083;-72
2021/07/13 02:56:32;;;;;;;4.00;2.00;;;16.70;99.90;;;;;;4937434;29;20491;-72
2021/07/13 02:59:01;;;;;;;1.98;1.88;;;16.70;99.90;;;;;;4937047;29;20127;-72
2021/07/13 03:01:28;;;;;;;4.00;2.30;;;16.60;99.90;;;;;;4937533;29;20075;-72
2021/07/13 03:03:54;;;;;;;3.95;2.10;;;16.60;99.90;;;;;;4937458;29;20031;-72
2021/07/13 03:06:21;;;;;;;1.98;1.77;;;16.60;99.90;;;;;;4937835;29;20391;-72
2021/07/13 03:08:47;;;;;;;3.70;1.98;;;16.60;99.90;;;;;;4936982;29;20027;-72
2021/07/13 03:11:13;;;;;;;2.25;1.80;;;16.60;99.90;;;;;;4937126;29;20067;-72
2021/07/13 03:13:41;;;;;;;2.22;1.80;;;16.60;99.90;;;;;;4937020;29;20435;-72
2021/07/13 03:16:10;;;;;;;4.05;2.42;;;16.60;99.90;;;;;;4937360;29;20036;-72
2021/07/13 03:18:36;;;;;;;2.47;2.00;;;16.60;99.90;;;;;;4936847;29;20115;-72
2021/07/13 03:21:04;;;;;;;2.30;1.83;;;16.70;99.90;;;;;;4937055;29;20103;-72
2021/07/13 03:23:34;;;;;;;1.83;1.73;;;16.90;99.90;;;;;;4937163;29;20031;-72
2021/07/13 03:26:02;;;;;;;3.13;1.48;;;17.20;99.90;;;;;;4936863;29;20020;-72
2021/07/13 03:28:29;;;;;;;3.00;1.80;;;17.70;99.90;;;;;;4937074;29;20038;-72
2021/07/13 03:30:56;;;;;;;2.22;1.88;;;18.00;99.90;;;;;;4936504;29;20031;-72
2021/07/13 03:33:23;;;;;;;2.50;1.80;;;18.40;99.90;;;;;;4936566;29;20028;-72
2021/07/13 03:35:49;;;;;;;1.77;1.63;;;18.50;99.90;;;;;;4936771;29;20097;-72
2021/07/13 03:38:17;;;;;;;1.90;1.70;;;18.60;99.90;;;;;;4936549;29;20019;-72
2021/07/13 03:40:45;;;;;;;1.90;1.80;;;18.50;99.90;;;;;;4936748;29;20034;-72
2021/07/13 03:43:11;;;;;;;1.85;1.75;;;18.60;99.90;;;;;;4936512;29;20020;-72
2021/07/13 03:45:37;;;;;;;2.70;1.80;;;18.80;99.90;;;;;;4936900;29;20034;-72
2021/07/13 03:48:03;;;;;;;1.67;1.58;;;19.00;99.90;;;;;;4936297;29;20312;-72
2021/07/13 03:50:33;;;;;;;1.83;1.63;;;19.20;99.90;;;;;;4936474;29;20535;-72
2021/07/13 03:52:59;;;;;;;2.17;1.98;;;19.50;99.90;;;;;;4936127;29;20504;-73
2021/07/13 03:55:25;;;;;;;2.13;1.50;;;19.90;99.90;;;;;;4936229;29;20079;-72
2021/07/13 03:57:53;;;;;;;2.42;1.40;;;20.20;99.90;;;;;;4936086;29;20107;-72
2021/07/13 04:00:21;;;;;;;1.60;1.50;;;20.50;99.90;;;;;;4936089;29;20110;-72
2021/07/13 04:02:47;;;;;;;1.73;1.50;;;20.90;99.90;;;;;;4936321;29;20122;-72
2021/07/13 04:05:14;;;;;;;2.08;1.33;;;21.20;99.90;;;;;;4936326;29;20488;-72
2021/07/13 04:07:40;;;;;;;3.22;1.65;;;21.50;99.50;;;;;;4936342;29;20079;-72
2021/07/13 04:10:11;;;;;;;3.30;1.20;;;21.80;98.30;;;;;;4935802;29;20032;-72
2021/07/13 04:12:37;;;;;;;1.70;1.30;;;22.00;97.30;;;;;;4936016;29;20047;-73
2021/07/13 04:15:05;;;;;;;3.55;1.40;;;22.20;96.30;;;;;;4935635;29;20144;-72
2021/07/13 04:17:30;;;;;;;2.67;1.45;;;22.40;95.70;;;;;;4936209;29;20030;-73
2021/07/13 04:19:56;;;;;;;3.15;1.50;;;22.70;94.90;;;;;;4935594;29;20027;-72
2021/07/13 04:22:22;;;;;;;1.50;1.40;;;22.90;94.10;;;;;;4936092;29;20055;-73
2021/07/13 04:24:48;;;;;;;2.50;1.20;;;23.10;93.30;;;;;;4935583;29;20028;-72
2021/07/13 04:27:13;;;;;;;1.25;1.10;;;23.30;92.20;;;;;;4935734;29;20551;-72
2021/07/13 04:29:39;;;;;;;1.70;1.23;;;23.50;91.50;;;;;;4935861;29;20095;-72
2021/07/13 04:32:05;;;;;;;3.00;1.33;;;23.60;90.80;;;;;;4935535;29;20024;-72
2021/07/13 04:34:31;;;;;;;3.22;1.33;;;23.80;90.10;;;;;;4935478;29;20039;-72
2021/07/13 04:36:57;;;;;;;1.52;1.23;;;24.00;88.90;;;;;;4935423;29;20034;-72
2021/07/13 04:39:23;;;;;;;1.50;1.02;;;24.20;86.60;;;;;;4918428;29;20043;-72
2021/07/13 04:41:49;;;;;;;3.45;1.42;;;24.50;85.20;;;;;;4935435;29;20083;-72
2021/07/13 04:44:14;;;;;;;3.90;1.20;;;24.70;83.50;;;;;;4934679;29;20023;-72
2021/07/13 04:46:40;;;;;;;6.22;1.50;;;24.90;82.20;;;;;;4935647;29;20028;-72
2021/07/13 04:49:08;;;;;;;2.95;1.40;;;25.20;80.60;;;;;;4935321;29;20024;-72
2021/07/13 04:51:34;;;;;;;1.30;1.20;;;25.60;78.20;;;;;;4935611;29;20032;-72
2021/07/13 04:54:00;;;;;;;4.22;1.13;;;25.80;77.50;;;;;;4934770;29;20058;-72
2021/07/13 04:56:26;;;;;;;3.03;1.27;;;26.00;76.40;;;;;;4935206;29;20032;-72
2021/07/13 04:58:51;;;;;;;4.32;1.25;;;26.00;76.30;;;;;;4935243;29;20024;-72
2021/07/13 05:01:17;;;;;;;3.35;1.02;;;26.10;75.20;;;;;;4935398;29;20024;-72
2021/07/13 05:03:43;;;;;;;2.58;1.15;;;26.10;74.20;;;;;;4935218;29;20038;-72
2021/07/13 05:06:08;;;;;;;3.63;1.20;;;26.20;73.70;;;;;;4935232;29;20146;-72
2021/07/13 05:08:35;;;;;;;4.07;1.10;;;26.30;72.90;;;;;;4934924;29;20571;-72
2021/07/13 05:11:00;;;;;;;4.65;1.25;;;26.50;72.50;;;;;;4934823;29;20091;-72
2021/07/13 05:13:26;;;;;;;1.75;0.90;;;26.80;71.00;;;;;;4935281;29;20064;-72
2021/07/13 05:15:52;;;;;;;1.30;0.95;;;27.00;69.80;;;;;;4935133;29;20034;-72
2021/07/13 05:18:18;;;;;;;1.60;1.10;;;27.30;69.30;;;;;;4935043;29;20110;-72
2021/07/13 05:20:47;;;;;;;1.25;1.10;;;27.50;66.90;;;;;;4934817;29;20039;-72
2021/07/13 05:23:13;;;;;;;;;;;27.60;66.00;;;;;;4935251;29;20487;-72
2021/07/13 05:25:39;;;;;;;2.72;1.05;;;27.70;63.90;;;;;;4934813;29;19943;-72
2021/07/13 05:28:10;;;;;;;1.67;1.00;;;27.90;63.50;;;;;;4934926;29;20042;-72
2021/07/13 05:30:40;;;;;;;1.13;1.02;;;28.10;63.20;;;;;;4934984;29;20024;-72
2021/07/13 05:33:06;;;;;;;4.72;1.05;;;28.20;61.30;;;;;;4934594;29;20043;-73
2021/07/13 05:35:32;;;;;;;4.35;1.00;;;28.40;60.70;;;;;;4934551;29;20075;-73
2021/07/13 05:37:58;;;;;;;7.30;1.00;;;28.60;61.50;;;;;;4934857;29;20054;-72
2021/07/13 05:40:24;;;;;;;3.00;0.68;;;28.80;60.00;;;;;;4934624;29;20043;-72
2021/07/13 05:42:50;;;;;;;3.83;1.02;;;28.90;59.90;;;;;;4934800;29;20042;-73
2021/07/13 05:45:16;;;;;;;1.50;1.00;;;29.00;59.50;;;;;;4934532;29;20028;-72
2021/07/13 05:47:42;;;;;;;1.95;1.15;;;29.20;58.50;;;;;;4934683;29;20032;-73
2021/07/13 05:50:09;;;;;;;2.70;1.00;;;29.20;58.40;;;;;;4934384;29;20038;-73
2021/07/13 05:52:36;;;;;;;1.85;1.00;;;29.40;58.30;;;;;;4934348;29;20081;-73
2021/07/13 05:55:03;;;;;;;4.50;1.20;;;29.50;57.20;;;;;;4935074;29;20031;-73
2021/07/13 05:57:29;;;;;;;2.17;1.02;;;29.60;57.50;;;;;;4938544;29;20091;-73
2021/07/13 05:59:54;;;;;;;2.88;0.90;;;29.60;57.50;;;;;;4938392;29;20119;-73
2021/07/13 06:02:21;;;;;;;1.67;0.98;;;29.80;57.50;;;;;;4938435;29;20031;-73
2021/07/13 06:04:46;;;;;;;1.27;0.98;;;29.90;57.10;;;;;;4938359;29;20110;-73
2021/07/13 06:07:12;;;;;;;2.28;0.90;;;30.00;57.10;;;;;;4938702;29;20052;-73
2021/07/13 06:09:38;;;;;;;2.97;1.00;;;29.90;56.20;;;;;;4938213;29;20372;-73
2021/07/13 06:12:04;;;;;;;2.42;0.93;;;30.00;56.30;;;;;;4938133;29;20030;-73
2021/07/13 06:14:30;;;;;;;2.92;0.98;;;30.10;55.60;;;;;;4938358;29;20479;-73
2021/07/13 06:16:56;;;;;;;6.70;1.17;;;30.00;54.70;;;;;;4938306;29;20039;-73
2021/07/13 06:19:21;;;;;;;3.75;1.33;;;30.10;55.50;;;;;;4938369;29;20023;-73
2021/07/13 06:21:47;;;;;;;5.43;0.80;;;30.10;54.60;;;;;;4937971;29;20116;-73
2021/07/13 06:24:13;;;;;;;2.65;1.00;;;30.20;54.50;;;;;;4938239;29;20275;-73
2021/07/13 06:26:39;;;;;;;1.67;0.93;;;30.20;54.20;;;;;;4938007;29;20020;-73
2021/07/13 06:29:05;;;;;;;2.33;0.93;;;30.20;54.30;;;;;;4937998;29;20107;-73
2021/07/13 06:31:31;;;;;;;2.22;1.00;;;30.20;53.90;;;;;;4937864;29;20051;-73
2021/07/13 06:33:57;;;;;;;4.07;0.90;;;30.10;54.20;;;;;;4937801;29;20042;-73
2021/07/13 06:36:23;;;;;;;3.70;0.88;;;30.10;54.30;;;;;;4937734;29;20031;-73
2021/07/13 06:38:49;;;;;;;2.28;0.73;;;30.10;53.50;;;;;;4937810;29;20024;-73
2021/07/13 06:41:14;;;;;;;1.83;1.00;;;30.00;52.90;;;;;;4937728;29;20083;-73
2021/07/13 06:43:40;;;;;;;3.13;1.00;;;30.00;53.20;;;;;;4937509;29;20031;-73
2021/07/13 06:46:06;;;;;;;5.68;0.93;;;30.20;53.60;;;;;;4937510;29;20058;-73
2021/07/13 06:48:32;;;;;;;6.22;0.98;;;30.30;53.10;;;;;;4937923;29;20031;-73
2021/07/13 06:50:57;;;;;;;3.25;0.80;;;30.20;52.70;;;;;;4937537;29;20127;-73
2021/07/13 06:53:23;;;;;;;2.40;0.80;;;30.20;53.00;;;;;;4937127;29;20082;-73
2021/07/13 06:55:49;;;;;;;1.05;0.77;;;30.20;53.60;;;;;;4937689;29;20126;-73
2021/07/13 06:58:14;;;;;;;2.90;1.00;;;30.00;52.70;;;;;;4937714;29;20369;-74
2021/07/13 07:00:40;;;;;;;2.38;0.90;;;30.00;52.50;;;;;;4937527;29;20028;-73
2021/07/13 07:03:06;;;;;;;5.40;0.80;;;30.00;53.30;;;;;;4937219;29;20502;-74
2021/07/13 07:05:32;;;;;;;3.15;0.82;;;30.10;53.10;;;;;;4937246;29;20487;-73
2021/07/13 07:07:58;;;;;;;2.13;0.95;;;30.20;53.50;;;;;;4936711;29;20062;-73
2021/07/13 07:10:24;;;;;;;1.10;0.77;;;30.10;52.70;;;;;;4937053;29;20080;-73
2021/07/13 07:12:51;;;;;;;3.15;0.80;;;30.10;52.80;;;;;;4937114;29;20055;-73
2021/07/13 07:15:19;;;;;;;1.20;0.80;;;29.90;52.50;;;;;;4936964;29;20028;-73
2021/07/13 07:17:53;;;;;;;5.65;0.90;;;29.90;54.20;;;;;;4937089;29;20039;-73
2021/07/13 07:20:23;;;;;;;3.10;0.98;;;30.00;53.50;;;;;;4937003;29;20038;-74
2021/07/13 07:22:49;;;;;;;1.65;1.00;;;29.80;53.40;;;;;;4936948;29;20039;-73
2021/07/13 07:25:15;;;;;;;1.45;0.80;;;29.70;54.10;;;;;;4936998;29;20027;-73
2021/07/13 07:27:42;;;;;;;3.70;0.75;;;29.70;54.30;;;;;;4936775;29;20034;-74
2021/07/13 07:30:10;;;;;;;2.72;0.90;;;29.70;53.90;;;;;;4936558;29;20476;-74
2021/07/13 07:32:38;;;;;;;4.57;1.13;;;29.70;54.30;;;;;;4936749;29;20513;-73
2021/07/13 07:35:05;;;;;;;2.95;0.90;;;29.80;54.70;;;;;;4936685;29;20044;-74
2021/07/13 07:37:32;;;;;;;1.88;0.93;;;29.80;55.30;;;;;;4937079;29;20079;-74
2021/07/13 07:39:58;;;;;;;1.08;0.73;;;29.70;54.90;;;;;;4936750;29;20039;-74
2021/07/13 07:42:23;;;;;;;1.52;0.95;;;29.40;54.90;;;;;;4936714;29;20050;-74
2021/07/13 07:44:49;;;;;;;0.85;0.80;;;29.30;55.60;;;;;;4936810;29;20031;-74
2021/07/13 07:47:16;;;;;;;1.83;0.90;;;29.30;55.80;;;;;;4936860;29;20030;-74
2021/07/13 07:49:42;;;;;;;1.70;1.02;;;29.30;56.20;;;;;;4936730;29;20082;-74
2021/07/13 07:52:08;;;;;;;0.98;0.80;;;29.20;56.80;;;;;;4936225;29;20027;-74
2021/07/13 07:54:34;;;;;;;2.72;0.90;;;29.20;56.80;;;;;;4936380;29;20547;-74
2021/07/13 07:56:59;;;;;;;3.00;1.00;;;29.10;57.10;;;;;;4936474;29;20107;-74
2021/07/13 07:59:25;;;;;;;1.60;1.00;;;29.10;57.30;;;;;;4919490;29;20028;-74
2021/07/13 08:01:51;;;;;;;1.40;1.30;;;29.00;57.00;;;;;;4936143;29;20024;-74
2021/07/13 08:04:17;;;;;;;1.92;1.10;;;29.00;58.20;;;;;;4936225;29;20034;-74
2021/07/13 08:06:42;;;;;;;5.57;1.10;;;29.00;58.40;;;;;;4936442;29;20039;-73
2021/07/13 08:09:08;;;;;;;2.65;1.10;;;29.00;59.20;;;;;;4936111;29;20479;-74
2021/07/13 08:11:35;;;;;;;3.03;1.20;;;29.00;58.70;;;;;;4936016;29;20031;-74
2021/07/13 08:14:04;;;;;;;1.42;0.98;;;29.10;59.40;;;;;;4935752;29;20038;-74
2021/07/13 08:16:30;;;;;;;1.27;1.17;;;29.20;59.50;;;;;;4936007;29;20038;-74
2021/07/13 08:18:56;;;;;;;1.38;1.20;;;29.10;59.00;;;;;;4934914;29;20643;-73
2021/07/13 08:21:22;;;;;;;2.08;1.30;;;28.90;59.30;;;;;;4935845;29;20119;-74
2021/07/13 08:23:48;;;;;;;1.70;1.10;;;28.70;59.20;;;;;;4936089;29;20031;-74
2021/07/13 08:26:14;;;;;;;8.45;1.45;;;28.60;59.70;;;;;;4935560;29;20594;-74
2021/07/13 08:28:40;;;;;;;3.40;1.40;;;28.70;60.80;;;;;;4936083;29;20040;-74
2021/07/13 08:31:06;;;;;;;3.00;1.60;;;28.70;60.60;;;;;;4918519;29;20038;-74
2021/07/13 08:33:32;;;;;;;1.35;1.25;;;28.70;60.90;;;;;;4935517;29;20423;-73
2021/07/13 08:35:58;;;;;;;1.58;1.30;;;28.70;61.70;;;;;;4935398;29;20472;-74
2021/07/13 08:38:24;;;;;;;3.83;1.40;;;28.70;61.20;;;;;;4935590;29;20036;-74
2021/07/13 08:40:50;;;;;;;3.92;1.40;;;28.50;61.20;;;;;;4935510;29;20038;-74
2021/07/13 08:43:17;;;;;;;1.95;1.58;;;28.40;61.50;;;;;;4935309;29;20055;-74
2021/07/13 08:45:43;;;;;;;6.10;1.40;;;28.40;61.90;;;;;;4935728;29;20054;-74
2021/07/13 08:48:12;;;;;;;3.80;1.40;;;28.50;61.80;;;;;;4935535;29;20036;-73
2021/07/13 08:50:56;;;;;;;1.50;1.35;;;28.40;61.50;;;;;;5069210;28;20836;-70
2021/07/13 08:53:22;;;;;;;6.25;1.70;;;28.30;62.90;;;;;;5069168;28;20478;-70
2021/07/13 08:55:48;;;;;;;2.70;1.65;;;28.40;62.70;;;;;;5069170;28;20059;-70
2021/07/13 08:58:14;;;;;;;1.98;1.45;;;28.30;62.30;;;;;;5069071;28;20028;-70
2021/07/13 09:00:42;;;;;;;2.10;1.70;;;28.20;62.50;;;;;;5069355;28;20033;-70
2021/07/13 09:03:12;;;;;;;5.72;1.90;;;28.20;63.50;;;;;;5069259;28;20067;-70
2021/07/13 09:05:44;;;;;;;2.33;1.80;;;28.10;63.40;;;;;;5069233;28;20056;-70
2021/07/13 09:08:14;;;;;;;6.78;1.80;;;28.00;64.50;;;;;;5069113;28;20116;-70
2021/07/13 09:10:57;;;;;;;7.90;1.77;;;28.10;64.90;;;;;;5068763;28;20037;-70
2021/07/13 09:13:27;;;;;;;7.75;1.70;;;28.20;64.60;;;;;;5069170;28;20407;-70
2021/07/13 09:16:01;;;;;;;5.75;1.80;;;28.00;64.00;;;;;;5069028;28;20357;-70
2021/07/13 09:18:36;;;;;;;5.57;1.85;;;28.00;65.30;;;;;;5069082;28;20387;-70
2021/07/13 09:21:10;;;;;;;2.05;1.70;;;28.00;65.40;;;;;;5068790;28;20025;-69
2021/07/13 09:24:16;;;;;;;3.05;1.70;;;28.00;64.70;;;;;;5068938;28;20079;-70
2021/07/13 09:26:42;;;;;;;3.95;1.35;;;27.90;64.90;;;;;;5068882;28;20037;-70
2021/07/13 09:29:26;;;;;;;2.92;1.42;;;27.90;64.40;;;;;;5068643;28;20033;-70
2021/07/13 09:31:52;;;;;;;1.40;1.30;;;27.70;64.30;;;;;;5068561;28;20021;-70
2021/07/13 09:34:18;;;;;;;1.40;1.30;;;27.60;64.50;;;;;;5068205;28;20473;-69
2021/07/13 09:36:54;;;;;;;1.63;1.30;;;27.50;64.70;;;;;;5068598;28;20029;-70
2021/07/13 09:39:26;;;;;;;1.58;1.33;;;27.40;65.00;;;;;;5068035;28;20521;-70
2021/07/13 09:41:53;;;;;;;21.23;2.00;;;27.40;64.90;;;;;;5068472;28;20025;-69
2021/07/13 09:44:23;;;;;;;5.18;1.33;;;27.20;64.90;;;;;;5067951;28;20033;-70
2021/07/13 09:46:50;;;;;;;3.80;1.23;;;27.30;64.30;;;;;;5068140;28;20237;-70
2021/07/13 09:49:21;;;;;;;4.68;1.20;;;27.40;64.90;;;;;;5067768;28;20128;-70
2021/07/13 09:51:59;;;;;;;2.28;1.13;;;27.50;62.70;;;;;;5067981;28;20025;-70
2021/07/13 09:54:41;;;;;;;18.88;1.80;;;27.50;62.80;;;;;;5067881;28;20400;-69
2021/07/13 09:57:14;;;;;;;6.30;1.30;;;27.50;62.50;;;;;;5067787;28;20024;-69
2021/07/13 09:59:41;;;;;;;4.47;1.05;;;27.50;62.90;;;;;;5068001;28;20045;-69
2021/07/13 10:02:09;;;;;;;2.63;1.17;;;27.50;61.40;;;;;;5054906;28;20025;-70
2021/07/13 10:04:39;;;;;;;2.50;1.52;;;27.50;62.60;;;;;;5054469;28;20111;-70
2021/07/13 10:07:15;;;;;;;2.25;1.38;;;27.50;62.70;;;;;;5054368;28;20032;-70
2021/07/13 10:09:49;;;;;;;8.25;1.48;;;27.60;63.60;;;;;;5054373;28;20515;-70
2021/07/13 10:12:17;;;;;;;5.70;1.60;;;27.60;64.60;;;;;;5054630;28;20074;-70
2021/07/13 10:14:49;;;;;;;1.17;1.07;;;27.70;64.30;;;;;;5054311;28;20029;-70
2021/07/13 10:17:16;;;;;;;1.77;1.30;;;27.70;62.70;;;;;;5054616;28;20029;-68
2021/07/13 10:20:04;;;;;;;1.23;1.10;;;27.60;62.20;;;;;;5054285;28;20029;-68
2021/07/13 10:22:32;;;;;;;2.78;1.10;;;27.50;63.10;;;;;;5054238;28;20025;-68
2021/07/13 10:24:59;;;;;;;1.08;0.90;;;27.50;63.10;;;;;;5054339;28;20033;-68
2021/07/13 10:27:34;;;;;;;2.85;1.50;;;27.60;62.40;;;;;;5054287;28;20021;-68
2021/07/13 10:30:02;;;;;;;7.65;1.05;;;27.50;62.90;;;;;;5054121;28;20048;-68
2021/07/13 10:32:28;;;;;;;2.22;1.23;;;27.40;63.60;;;;;;5054328;28;20032;-68
2021/07/13 10:34:56;;;;;;;1.63;0.90;;;27.30;63.20;;;;;;5054025;28;20028;-68
2021/07/13 10:37:45;;;;;;;3.22;0.98;;;27.10;62.90;;;;;;5053904;28;20388;-68
2021/07/13 10:40:26;;;;;;;2.55;0.80;;;26.90;64.20;;;;;;5053922;28;20376;-68
2021/07/13 10:43:02;;;;;;;3.53;0.90;;;27.00;64.10;;;;;;5053843;28;20021;-68
2021/07/13 10:45:37;;;;;;;6.45;1.13;;;27.00;64.10;;;;;;5053762;28;20029;-69
2021/07/13 10:48:04;;;;;;;0.93;0.70;;;26.90;62.90;;;;;;5053636;28;20028;-69
2021/07/13 10:50:30;;;;;;;4.90;0.98;;;27.00;62.60;;;;;;5053477;28;20053;-69
2021/07/13 10:53:06;;;;;;;1.48;0.70;;;27.00;60.90;;;;;;5053554;28;20028;-69
2021/07/13 10:55:32;;;;;;;0.70;0.60;;;26.90;61.20;;;;;;5053601;28;20654;-69
2021/07/13 10:58:10;;;;;;;0.50;0.50;;;26.80;60.00;;;;;;5053594;28;20029;-69
2021/07/13 11:00:50;;;;;;;4.60;0.60;;;26.80;59.30;;;;;;5053680;28;20372;-69
2021/07/13 11:03:34;;;;;;;1.60;0.60;;;26.80;59.10;;;;;;5053386;28;20057;-69
2021/07/13 11:06:03;;;;;;;0.65;0.60;;;26.80;58.90;;;;;;5053456;28;20083;-69
2021/07/13 11:08:41;;;;;;;0.80;0.50;;;26.80;58.10;;;;;;5053405;28;20484;-69
2021/07/13 11:11:09;;;;;;;2.20;0.60;;;26.90;57.30;;;;;;5053134;28;20033;-69
2021/07/13 11:13:36;;;;;;;0.50;0.50;;;26.90;57.60;;;;;;5052657;28;20033;-69
2021/07/13 11:16:03;;;;;;;1.20;0.60;;;26.90;58.10;;;;;;5053179;28;20025;-69
2021/07/13 11:18:31;;;;;;;0.80;0.50;;;26.90;58.40;;;;;;5053515;28;20116;-69
2021/07/13 11:21:22;;;;;;;1.02;0.80;;;26.80;58.10;;;;;;5053130;28;20108;-69
2021/07/13 11:23:51;;;;;;;0.70;0.70;;;26.80;58.50;;;;;;5053099;28;20029;-69
2021/07/13 11:26:18;;;;;;;3.97;0.70;;;26.80;59.10;;;;;;5053116;28;20388;-69
2021/07/13 11:28:45;;;;;;;3.72;0.70;;;26.80;59.60;;;;;;5053418;28;20692;-69
2021/07/13 11:31:27;;;;;;;2.40;0.90;;;27.00;60.00;;;;;;5052609;28;20503;-69
2021/07/13 11:34:00;;;;;;;2.03;0.80;;;27.10;59.40;;;;;;5052920;28;20017;-69
2021/07/13 11:36:26;;;;;;;1.27;0.90;;;27.00;59.00;;;;;;5051276;28;20357;-69
2021/07/13 11:38:53;;;;;;;15.65;1.42;;;26.90;59.00;;;;;;5053052;28;20087;-68
2021/07/13 11:41:20;;;;;;;2.70;0.70;;;27.00;59.60;;;;;;5052504;28;20480;-69
2021/07/13 11:43:54;;;;;;;1.95;0.85;;;27.00;59.40;;;;;;5052692;28;20029;-68
2021/07/13 11:46:27;;;;;;;1.25;1.00;;;27.10;59.60;;;;;;5052476;28;20124;-68
2021/07/13 11:48:58;;;;;;;4.43;0.90;;;27.10;59.70;;;;;;5052576;28;20041;-68
2021/07/13 11:51:27;;;;;;;0.80;0.80;;;27.10;59.60;;;;;;5052552;28;20510;-68
2021/07/13 11:54:13;;;;;;;4.07;1.20;;;27.00;59.30;;;;;;5052762;28;20048;-68
2021/07/13 11:56:47;;;;;;;1.33;1.00;;;27.00;59.90;;;;;;5052405;28;20029;-68
2021/07/13 11:59:15;;;;;;;7.57;1.10;;;27.00;59.50;;;;;;5052316;28;20029;-68
2021/07/13 12:01:43;;;;;;;2.65;0.90;;;26.90;59.70;;;;;;5052561;28;20100;-68
2021/07/13 12:04:10;;;;;;;1.77;1.10;;;26.90;59.10;;;;;;5052333;28;20104;-68
2021/07/13 12:06:38;;;;;;;2.85;1.63;;;26.90;58.70;;;;;;5052123;28;20568;-68
2021/07/13 12:09:09;;;;;;;7.72;1.02;;;26.90;58.20;;;;;;5052545;28;20044;-68
2021/07/13 12:11:36;;;;;;;1.15;0.60;;;26.90;58.70;;;;;;5052412;28;20056;-68
2021/07/13 12:14:04;;;;;;;0.77;0.73;;;26.90;58.60;;;;;;5052242;28;20044;-68
2021/07/13 12:16:34;;;;;;;1.27;0.68;;;26.80;58.70;;;;;;5051888;28;20098;-68
2021/07/13 12:19:03;;;;;;;2.53;1.00;;;26.90;58.60;;;;;;5052118;28;20064;-68
2021/07/13 12:21:31;;;;;;;4.18;1.02;;;26.90;58.40;;;;;;5051929;28;20083;-68
2021/07/13 12:23:58;;;;;;;5.60;0.80;;;26.90;58.90;;;;;;5051764;28;20036;-68
2021/07/13 12:26:34;;;;;;;8.63;1.05;;;26.90;59.00;;;;;;5051615;28;20029;-68
2021/07/13 12:29:10;;;;;;;14.50;1.00;;;26.80;58.40;;;;;;5051952;28;20148;-69
2021/07/13 12:31:44;;;;;;;1.67;0.80;;;26.80;59.30;;;;;;5050544;28;20029;-69
2021/07/13 12:34:17;;;;;;;2.38;1.17;;;26.70;59.20;;;;;;5051867;28;20117;-69
2021/07/13 12:36:44;;;;;;;9.43;0.90;;;26.70;59.00;;;;;;5051836;28;20036;-68
2021/07/13 12:39:23;;;;;;;1.10;0.88;;;26.70;58.60;;;;;;5052079;28;20044;-69
2021/07/13 12:42:07;;;;;;;5.05;1.00;;;26.60;58.30;;;;;;5051769;28;20021;-68
2021/07/13 12:44:37;;;;;;;2.20;0.82;;;26.70;60.00;;;;;;5051790;28;20029;-68
2021/07/13 12:47:35;;;;;;;1.52;1.00;;;26.70;59.60;;;;;;5051771;28;20017;-68
2021/07/13 12:50:09;;;;;;;2.00;0.90;;;26.60;60.80;;;;;;5050117;28;20419;-68
2021/07/13 12:53:00;;;;;;;5.43;1.38;;;26.70;60.90;;;;;;5051590;28;20036;-68
2021/07/13 12:55:39;;;;;;;2.67;1.00;;;26.70;62.30;;;;;;5051453;28;20028;-68
2021/07/13 12:58:10;;;;;;;3.20;1.50;;;26.70;61.50;;;;;;5051695;28;20056;-68
2021/07/13 13:00:38;;;;;;;3.03;1.25;;;26.70;61.80;;;;;;5051666;28;20041;-68
2021/07/13 13:03:13;;;;;;;4.07;1.25;;;26.50;61.90;;;;;;5051874;28;20029;-68
2021/07/13 13:05:42;;;;;;;2.40;1.13;;;26.50;64.20;;;;;;5051487;28;20051;-68
2021/07/13 13:08:21;;;;;;;5.60;1.30;;;26.60;63.40;;;;;;5051646;28;20541;-69
2021/07/13 13:10:49;;;;;;;9.13;1.20;;;26.60;63.60;;;;;;5051425;28;20037;-69
2021/07/13 13:13:30;;;;;;;4.13;1.45;;;26.60;63.20;;;;;;5051380;28;20508;-68
2021/07/13 13:15:58;;;;;;;4.68;1.00;;;26.60;63.30;;;;;;5051324;28;20036;-68
2021/07/13 13:18:28;;;;;;;14.02;1.77;;;26.50;62.80;;;;;;5051979;28;20025;-68
2021/07/13 13:20:56;;;;;;;1.55;1.15;;;26.50;62.80;;;;;;5051603;28;20033;-68
2021/07/13 13:23:22;;;;;;;1.30;1.20;;;26.50;62.80;;;;;;5051499;28;20032;-68
2021/07/13 13:25:49;;;;;;;2.08;1.25;;;26.50;63.90;;;;;;5051580;28;20033;-68
2021/07/13 13:28:16;;;;;;;6.25;1.30;;;26.50;64.40;;;;;;5051212;28;20036;-68
2021/07/13 13:30:43;;;;;;;3.00;1.15;;;26.40;63.70;;;;;;5051502;28;20071;-68
2021/07/13 13:33:11;;;;;;;12.00;1.60;;;26.40;63.90;;;;;;5051407;28;20017;-68